메인 페이지
METAR-TAF:

METAR-TAF

공항 :

아카풀코, 멕시코

위도: 16-46N, 경도: 099-45W, 고도: 5m

현재 날씨관측

예보는 52분 전, 07:43시(UTC)에 발표되었습니다.
5kt
온도 27°C
습도 89%
기압 1012 hPa
시정: 11.3km
고도 10000ft 상공 구름 조금
고도 30000ft 상공 구름 조금

METAR: MMAA 200743Z 36005KT 7SM FEW100 FEW300 27/25 A2989 RMK 8/032 HZY

시각: 03:35 (08:35 UTC)

예보

예보는 4 시간 17분 전, 04:18시(UTC)에 발표되었습니다.
예보 대상 시간: 20일 06시부터 21일 12시까지 (UTC)
kt
시정: 10km
고도 10000ft 상공 구름 보통
고도 30000ft 상공 구름 보통
20일 1800시부터 (UTC)
서남서10kt
시정: 10km
고도 2000ft 상공 구름 보통
고도 9000ft 상공 구름 많음
고도 25000ft 상공 구름 많음
전환 중
21일 05시부터 21일 07시까지 (UTC)
북북동4kt

TAF: MMAA 200418Z 2006/2112 00000KT P6SM SCT100 SCT300 TX31/2021Z TN24/2012Z FM201800 24010KT P6SM SCT020 BKN090 BKN250 BECMG 2105/2107 02004KT

4,000개 이상의 공항 관측 자료 및 예보 (METAR 및 TAF 보고).

지도상에서 검색 가능한 기상관측소가 노란 점과 빨간 점으로 표시되어 있습니다.

기상관측소 명을 보려면 표시 위로 마우스를 이동하세요.

날씨 관측과 예보를 보려면 클릭하세요.

지도 변경 : 확대하려면 엑스 표시가 있는 녹색 버튼, 축소하려면 빼기 표시가 있는 녹색 버튼, 다음 페이지의 지도를 보려면 녹색 화살표를 클릭하세요.


METAR-TAF: